Time;durP1;ratioP1;P1;durP2;ratioP2;P2;SDS_P1;SDS_P2;PMS_P1;PMS_P2;Temp;Humidity;BMP_temperature;BMP_pressure;BME280_temperature;BME280_humidity;BME280_pressure;Samples;Min_cycle;Max_cycle;Signal;HPM_P1;HPM_P2
2023/03/05 00:02:12;;;;;;;66.20;29.47;;;1.90;99.90;;;;;;5077763;28;20202;-49
2023/03/05 00:04:39;;;;;;;58.50;30.13;;;1.90;99.90;;;;;;5075247;28;20655;-48
2023/03/05 00:07:08;;;;;;;60.60;30.27;;;1.90;99.90;;;;;;5076813;28;20202;-50
2023/03/05 00:09:36;;;;;;;62.73;28.50;;;1.80;99.90;;;;;;5070242;28;20235;-48
2023/03/05 00:12:04;;;;;;;64.50;31.17;;;1.90;99.90;;;;;;5070621;28;20202;-47
2023/03/05 00:14:31;;;;;;;59.50;28.73;;;1.90;99.90;;;;;;5064555;28;20248;-50
2023/03/05 00:16:58;;;;;;;71.03;29.57;;;1.90;99.90;;;;;;5065562;28;20617;-50
2023/03/05 00:19:25;;;;;;;61.13;29.80;;;2.00;99.90;;;;;;5069211;28;20642;-49
2023/03/05 00:21:52;;;;;;;56.03;28.53;;;2.00;99.90;;;;;;5070828;28;20657;-49
2023/03/05 00:24:19;;;;;;;57.33;30.27;;;2.00;99.90;;;;;;5073177;28;20287;-48
2023/03/05 00:26:48;;;;;;;60.77;29.63;;;2.10;99.90;;;;;;5065916;28;20210;-48
2023/03/05 00:29:18;;;;;;;59.37;30.17;;;2.10;99.90;;;;;;5072027;28;20222;-48
2023/03/05 00:31:46;;;;;;;61.30;28.47;;;2.10;99.90;;;;;;5072048;28;20202;-49
2023/03/05 00:34:14;;;;;;;65.90;31.10;;;2.10;99.90;;;;;;5063596;28;20219;-49
2023/03/05 00:36:42;;;;;;;59.63;28.33;;;2.20;99.90;;;;;;5070825;28;20669;-49
2023/03/05 00:39:09;;;;;;;58.17;29.53;;;2.10;99.90;;;;;;5072695;28;20267;-48
2023/03/05 00:41:36;;;;;;;64.07;31.20;;;2.20;99.90;;;;;;5072928;28;20263;-49
2023/03/05 00:44:05;;;;;;;63.63;29.03;;;2.20;99.90;;;;;;5072874;28;20218;-48
2023/03/05 00:46:32;;;;;;;63.17;30.20;;;2.30;99.90;;;;;;5063689;28;20202;-47
2023/03/05 00:48:59;;;;;;;63.33;29.23;;;2.30;99.90;;;;;;5064406;28;20282;-49
2023/03/05 00:51:27;;;;;;;61.33;29.43;;;2.30;99.90;;;;;;5072856;28;20207;-47
2023/03/05 00:53:54;;;;;;;58.80;28.47;;;2.30;99.90;;;;;;5072783;28;20308;-49
2023/03/05 00:56:22;;;;;;;61.43;30.17;;;2.30;99.90;;;;;;5072657;28;20202;-49
2023/03/05 00:58:49;;;;;;;57.83;29.67;;;2.30;99.90;;;;;;5068732;28;20215;-48
2023/03/05 01:01:17;;;;;;;63.27;31.10;;;2.20;99.90;;;;;;5067680;28;20198;-48
2023/03/05 01:03:44;;;;;;;61.40;30.03;;;2.20;99.90;;;;;;5063029;28;20898;-48
2023/03/05 01:06:13;;;;;;;56.80;28.83;;;2.20;99.90;;;;;;5072362;28;20202;-50
2023/03/05 01:08:40;;;;;;;60.67;28.13;;;2.30;99.90;;;;;;5072506;28;20222;-47
2023/03/05 01:11:08;;;;;;;54.23;27.47;;;2.30;99.90;;;;;;5066294;28;20630;-49
2023/03/05 01:13:36;;;;;;;63.13;29.73;;;2.30;99.90;;;;;;5072284;28;20190;-48
2023/03/05 01:16:04;;;;;;;64.67;30.43;;;2.30;99.90;;;;;;5068712;28;20554;-48
2023/03/05 01:18:32;;;;;;;65.10;31.50;;;2.40;99.90;;;;;;5068924;28;20223;-48
2023/03/05 01:20:59;;;;;;;59.20;31.07;;;2.30;99.90;;;;;;5062886;28;20660;-48
2023/03/05 01:23:26;;;;;;;59.37;28.47;;;2.30;99.90;;;;;;5068224;28;20283;-49
2023/03/05 01:25:54;;;;;;;57.40;29.03;;;2.30;99.90;;;;;;5071470;28;20248;-49
2023/03/05 01:28:21;;;;;;;62.77;30.63;;;2.30;99.90;;;;;;5071284;28;20316;-48
2023/03/05 01:30:48;;;;;;;57.07;30.53;;;2.30;99.90;;;;;;5068549;28;20206;-48
2023/03/05 01:33:15;;;;;;;58.10;28.97;;;2.20;99.90;;;;;;5071223;28;20256;-49
2023/03/05 01:35:46;;;;;;;58.73;30.17;;;2.20;99.90;;;;;;5069194;28;20209;-50
2023/03/05 01:38:13;;;;;;;62.87;28.70;;;2.30;99.90;;;;;;5065609;28;20222;-49
2023/03/05 01:40:41;;;;;;;59.93;31.00;;;2.40;99.90;;;;;;5072008;28;20252;-49
2023/03/05 01:43:22;;;;;;;66.70;31.67;;;2.40;99.90;;;;;;5069781;28;20207;-48
2023/03/05 01:46:33;;;;;;;59.50;29.30;;;2.40;99.90;;;;;;5070416;28;20233;-48
2023/03/05 01:49:15;;;;;;;63.00;30.60;;;2.50;99.90;;;;;;5066971;28;20226;-49
2023/03/05 01:51:50;;;;;;;82.77;30.17;;;2.40;99.90;;;;;;5062212;28;20260;-47
2023/03/05 01:54:20;;;;;;;61.70;29.97;;;2.40;99.90;;;;;;5070427;28;20202;-48
2023/03/05 01:56:50;;;;;;;53.70;27.07;;;2.30;99.90;;;;;;5067262;28;20210;-48
2023/03/05 01:59:18;;;;;;;63.13;29.93;;;2.30;99.90;;;;;;5063209;28;20221;-50
2023/03/05 02:01:50;;;;;;;52.57;29.40;;;2.30;99.90;;;;;;5069954;28;20228;-49
2023/03/05 02:04:19;;;;;;;66.87;30.97;;;2.30;99.90;;;;;;5071635;28;20295;-49
2023/03/05 02:06:48;;;;;;;55.20;28.83;;;2.40;99.90;;;;;;5067562;28;20291;-49
2023/03/05 02:09:15;;;;;;;63.30;29.50;;;2.40;99.90;;;;;;5071494;28;20241;-48
2023/03/05 02:11:43;;;;;;;70.93;29.50;;;2.50;99.90;;;;;;5062513;28;20207;-49
2023/03/05 02:14:10;;;;;;;63.27;29.57;;;2.40;99.90;;;;;;5068952;28;20249;-47
2023/03/05 02:16:38;;;;;;;60.10;31.53;;;2.40;99.90;;;;;;5071436;28;20194;-49
2023/03/05 02:19:08;;;;;;;66.30;30.90;;;2.50;99.90;;;;;;5071273;28;20222;-49
2023/03/05 02:21:40;;;;;;;67.17;29.53;;;2.50;99.90;;;;;;5063689;28;20206;-49
2023/03/05 02:24:11;;;;;;;59.43;29.37;;;2.50;99.90;;;;;;5071502;28;20218;-49
2023/03/05 02:26:39;;;;;;;57.63;30.20;;;2.50;99.90;;;;;;5054680;28;20757;-48
2023/03/05 02:29:09;;;;;;;66.27;30.73;;;2.40;99.90;;;;;;5065615;28;20940;-48
2023/03/05 02:31:37;;;;;;;67.50;30.17;;;2.50;99.90;;;;;;5068348;28;20310;-49
2023/03/05 02:34:05;;;;;;;62.37;29.00;;;2.50;99.90;;;;;;5070438;28;20198;-49
2023/03/05 02:36:32;;;;;;;56.03;30.10;;;2.40;99.90;;;;;;5071481;28;20338;-47
2023/03/05 02:39:01;;;;;;;66.97;31.80;;;2.40;99.90;;;;;;5064453;28;20265;-48
2023/03/05 02:41:28;;;;;;;68.93;30.93;;;2.30;99.90;;;;;;5070773;28;20209;-49
2023/03/05 02:43:55;;;;;;;59.87;29.77;;;2.30;99.90;;;;;;5071504;28;20215;-48
2023/03/05 02:46:22;;;;;;;65.17;30.20;;;2.30;99.90;;;;;;5074985;28;20247;-49
2023/03/05 02:48:49;;;;;;;70.53;32.23;;;2.30;99.90;;;;;;5070919;28;20290;-48
2023/03/05 02:51:17;;;;;;;66.50;34.03;;;2.30;99.90;;;;;;5062692;28;20341;-47
2023/03/05 02:53:44;;;;;;;61.97;30.23;;;2.30;99.90;;;;;;5073533;28;20202;-48
2023/03/05 02:56:12;;;;;;;69.27;29.63;;;2.30;99.90;;;;;;5075056;28;20202;-48
2023/03/05 02:58:39;;;;;;;61.20;28.77;;;2.30;99.90;;;;;;5069002;28;20305;-50
2023/03/05 03:01:07;;;;;;;67.83;32.40;;;2.30;99.90;;;;;;5074718;28;20626;-48
2023/03/05 03:03:34;;;;;;;67.47;31.63;;;2.30;99.90;;;;;;5069461;28;20699;-49
2023/03/05 03:06:01;;;;;;;61.23;29.80;;;2.20;99.90;;;;;;5068682;28;20198;-48
2023/03/05 03:08:28;;;;;;;70.83;34.40;;;2.20;99.90;;;;;;5074515;28;20275;-49
2023/03/05 03:10:55;;;;;;;68.33;31.77;;;2.30;99.90;;;;;;5074715;28;20253;-49
2023/03/05 03:13:24;;;;;;;68.97;33.53;;;2.30;99.90;;;;;;5073775;28;20294;-49
2023/03/05 03:16:01;;;;;;;69.07;31.90;;;2.30;99.90;;;;;;5073522;28;20756;-49
2023/03/05 03:18:28;;;;;;;62.73;30.47;;;2.30;99.90;;;;;;5057102;28;20288;-50
2023/03/05 03:20:54;;;;;;;70.37;32.40;;;2.40;99.90;;;;;;5074321;28;20198;-49
2023/03/05 03:23:21;;;;;;;68.03;30.57;;;2.30;99.90;;;;;;5074508;28;20225;-49
2023/03/05 03:25:48;;;;;;;64.70;31.67;;;2.30;99.90;;;;;;5074457;28;20291;-48
2023/03/05 03:28:15;;;;;;;64.50;30.70;;;2.30;99.90;;;;;;5074405;28;20222;-49
2023/03/05 03:30:44;;;;;;;59.40;30.83;;;2.20;99.90;;;;;;5066739;28;20257;-48
2023/03/05 03:33:11;;;;;;;66.77;30.80;;;2.20;99.90;;;;;;5071124;28;20206;-48
2023/03/05 03:35:38;;;;;;;64.97;31.87;;;2.30;99.90;;;;;;5065500;28;20210;-49
2023/03/05 03:38:24;;;;;;;65.97;32.33;;;2.30;99.90;;;;;;5073866;28;20789;-48
2023/03/05 03:40:51;;;;;;;63.10;30.33;;;2.30;99.90;;;;;;5070763;28;20198;-48
2023/03/05 03:43:18;;;;;;;63.60;31.40;;;2.30;99.90;;;;;;5071148;28;20257;-48
2023/03/05 03:45:46;;;;;;;64.23;32.00;;;2.30;99.90;;;;;;5071996;28;20226;-50
2023/03/05 03:48:13;;;;;;;64.17;31.83;;;2.40;99.90;;;;;;5073554;28;20860;-49
2023/03/05 03:50:41;;;;;;;64.90;31.20;;;2.30;99.90;;;;;;5074123;28;20634;-48
2023/03/05 03:53:12;;;;;;;63.07;30.97;;;2.30;99.90;;;;;;5071297;28;20210;-47
2023/03/05 03:55:40;;;;;;;71.17;33.20;;;2.30;99.90;;;;;;5071074;28;20198;-49
2023/03/05 03:58:07;;;;;;;77.03;31.43;;;2.30;99.90;;;;;;5073607;28;20638;-49
2023/03/05 04:00:34;;;;;;;65.70;31.13;;;2.30;99.90;;;;;;5073954;28;20203;-48
2023/03/05 04:03:02;;;;;;;71.97;30.33;;;2.30;99.90;;;;;;5065456;28;20211;-49
2023/03/05 04:05:29;;;;;;;60.90;28.97;;;2.20;99.90;;;;;;5064588;28;20227;-48
2023/03/05 04:07:58;;;;;;;68.83;31.90;;;2.20;99.90;;;;;;5062378;28;20787;-51
2023/03/05 04:10:25;;;;;;;63.47;30.10;;;2.20;99.90;;;;;;5073698;28;20257;-50
2023/03/05 04:12:53;;;;;;;60.90;31.20;;;2.20;99.90;;;;;;5073723;28;20577;-48
2023/03/05 04:15:20;;;;;;;67.17;32.23;;;2.20;99.90;;;;;;5073697;28;20208;-49
2023/03/05 04:17:47;;;;;;;61.60;31.20;;;2.20;99.90;;;;;;5073288;28;20740;-48
2023/03/05 04:20:15;;;;;;;57.63;30.37;;;2.20;99.90;;;;;;5062803;28;20225;-49
2023/03/05 04:22:42;;;;;;;68.57;33.50;;;2.20;99.90;;;;;;5071878;28;20202;-48
2023/03/05 04:25:10;;;;;;;61.13;30.20;;;2.20;99.90;;;;;;5066558;28;20218;-48
2023/03/05 04:27:38;;;;;;;67.00;29.87;;;2.20;99.90;;;;;;5073098;28;20204;-48
2023/03/05 04:30:07;;;;;;;64.87;30.53;;;2.20;99.90;;;;;;5073384;28;20210;-50
2023/03/05 04:32:34;;;;;;;61.87;30.83;;;2.20;99.90;;;;;;5068063;28;20280;-48
2023/03/05 04:35:01;;;;;;;61.20;30.70;;;2.20;99.90;;;;;;5070525;28;20611;-49
2023/03/05 04:37:29;;;;;;;62.27;29.80;;;2.30;99.90;;;;;;5071126;28;20210;-49
2023/03/05 04:39:56;;;;;;;66.47;29.47;;;2.30;99.90;;;;;;5073014;28;20725;-49
2023/03/05 04:42:23;;;;;;;73.90;33.57;;;2.20;99.90;;;;;;5070568;28;20565;-49
2023/03/05 04:44:51;;;;;;;64.50;30.70;;;2.20;99.90;;;;;;5063127;28;20574;-49
2023/03/05 04:47:18;;;;;;;57.17;29.90;;;2.20;99.90;;;;;;5070050;28;20202;-50
2023/03/05 04:49:46;;;;;;;57.63;29.67;;;2.20;99.90;;;;;;5071771;28;20226;-47
2023/03/05 04:52:13;;;;;;;65.60;30.47;;;2.20;99.90;;;;;;5066581;28;20216;-49
2023/03/05 04:54:43;;;;;;;66.03;30.87;;;2.20;99.90;;;;;;5064092;28;20199;-48
2023/03/05 04:57:11;;;;;;;67.73;31.33;;;2.20;99.90;;;;;;5066773;28;20228;-49
2023/03/05 04:59:38;;;;;;;56.87;28.80;;;2.20;99.90;;;;;;5072758;28;20275;-49
2023/03/05 05:02:05;;;;;;;76.10;32.60;;;2.20;99.90;;;;;;5070912;28;20196;-48
2023/03/05 05:04:32;;;;;;;59.27;31.73;;;2.20;99.90;;;;;;5070203;28;20222;-48
2023/03/05 05:06:59;;;;;;;61.23;32.23;;;2.20;99.90;;;;;;5070482;28;20202;-48
2023/03/05 05:09:27;;;;;;;58.27;29.60;;;2.20;99.90;;;;;;5068686;28;20230;-49
2023/03/05 05:11:55;;;;;;;67.30;30.63;;;2.20;99.90;;;;;;5072375;28;20197;-50
2023/03/05 05:14:22;;;;;;;69.37;30.67;;;2.10;99.90;;;;;;5070900;28;20198;-49
2023/03/05 05:16:49;;;;;;;59.67;29.70;;;2.10;99.90;;;;;;5064442;28;20205;-48
2023/03/05 05:19:16;;;;;;;62.03;29.53;;;2.10;99.90;;;;;;5072136;28;20214;-48
2023/03/05 05:21:43;;;;;;;66.57;31.27;;;2.10;99.90;;;;;;5072409;28;20758;-48
2023/03/05 05:24:10;;;;;;;68.97;32.03;;;2.10;99.90;;;;;;5066329;28;20223;-48
2023/03/05 05:26:37;;;;;;;64.03;30.87;;;2.10;99.90;;;;;;5070202;28;20214;-48
2023/03/05 05:29:06;;;;;;;59.83;31.40;;;2.10;99.90;;;;;;5074045;28;20223;-48
2023/03/05 05:31:33;;;;;;;66.60;30.17;;;2.10;99.90;;;;;;5066085;28;20607;-48
2023/03/05 05:34:00;;;;;;;72.80;31.13;;;2.10;99.90;;;;;;5072011;28;20587;-47
2023/03/05 05:36:26;;;;;;;62.23;32.77;;;2.20;99.90;;;;;;5072013;28;20618;-48
2023/03/05 05:38:53;;;;;;;59.97;30.13;;;2.10;99.90;;;;;;5071974;28;20223;-48
2023/03/05 05:41:21;;;;;;;59.40;28.73;;;2.20;99.90;;;;;;5064421;28;20211;-48
2023/03/05 05:43:48;;;;;;;63.73;29.57;;;2.20;99.90;;;;;;5070536;28;20198;-47
2023/03/05 05:46:19;;;;;;;71.10;31.33;;;2.20;99.90;;;;;;5063363;28;20215;-48
2023/03/05 05:48:46;;;;;;;63.87;31.90;;;2.20;99.90;;;;;;5070040;28;20226;-49
2023/03/05 05:51:15;;;;;;;63.63;32.13;;;2.20;99.90;;;;;;5072902;28;20207;-48
2023/03/05 05:53:43;;;;;;;60.87;30.93;;;2.20;99.90;;;;;;5054245;28;20203;-49
2023/03/05 05:56:11;;;;;;;64.33;31.53;;;2.20;99.90;;;;;;5051873;28;20203;-49
2023/03/05 05:58:39;;;;;;;64.50;31.93;;;2.20;99.90;;;;;;5057569;28;20269;-48
2023/03/05 06:01:13;;;;;;;59.93;29.60;;;2.20;99.90;;;;;;5064969;28;20207;-48
2023/03/05 06:03:41;;;;;;;65.47;31.77;;;2.10;99.90;;;;;;5063361;28;20202;-50
2023/03/05 06:06:10;;;;;;;64.23;32.60;;;2.20;99.90;;;;;;5069191;28;20215;-48
2023/03/05 06:08:38;;;;;;;62.67;30.47;;;2.20;99.90;;;;;;5071214;28;20226;-49
2023/03/05 06:11:05;;;;;;;70.17;31.63;;;2.30;99.90;;;;;;5071806;28;20210;-49
2023/03/05 06:13:32;;;;;;;64.10;31.77;;;2.20;99.90;;;;;;5055504;28;20261;-48
2023/03/05 06:16:01;;;;;;;70.37;33.17;;;2.20;99.90;;;;;;5055720;28;20199;-48
2023/03/05 06:18:29;;;;;;;68.83;32.67;;;2.20;99.90;;;;;;5068023;28;20279;-47
2023/03/05 06:20:59;;;;;;;68.07;32.97;;;2.20;99.90;;;;;;5075809;28;20256;-48
2023/03/05 06:23:27;;;;;;;76.53;33.63;;;2.20;99.90;;;;;;5069884;28;20203;-49
2023/03/05 06:25:54;;;;;;;74.73;33.50;;;2.20;99.90;;;;;;5071465;28;20775;-49
2023/03/05 06:28:22;;;;;;;74.17;32.43;;;2.20;99.90;;;;;;5062479;28;20230;-48
2023/03/05 06:30:49;;;;;;;67.77;35.00;;;2.20;99.90;;;;;;5072079;28;20261;-49
2023/03/05 06:33:16;;;;;;;67.73;33.93;;;2.30;99.90;;;;;;5074279;28;20672;-49
2023/03/05 06:35:43;;;;;;;64.27;33.30;;;2.20;99.90;;;;;;5075614;28;20639;-48
2023/03/05 06:38:11;;;;;;;70.13;32.80;;;2.20;99.90;;;;;;5075287;28;20234;-49
2023/03/05 06:40:39;;;;;;;72.57;36.00;;;2.20;99.90;;;;;;5064936;28;20214;-48
2023/03/05 06:43:06;;;;;;;60.80;31.53;;;2.20;99.90;;;;;;5064468;28;20389;-48
2023/03/05 06:45:33;;;;;;;68.83;34.43;;;2.20;99.90;;;;;;5075042;28;20222;-49
2023/03/05 06:48:00;;;;;;;79.13;33.33;;;2.20;99.90;;;;;;5061618;28;20645;-50
2023/03/05 06:50:27;;;;;;;76.07;34.60;;;2.30;99.90;;;;;;5069447;28;20233;-49
2023/03/05 06:52:54;;;;;;;65.30;32.30;;;2.30;99.90;;;;;;5071460;28;20200;-48
2023/03/05 06:55:23;;;;;;;70.40;31.77;;;2.30;99.90;;;;;;5074890;28;20679;-49
2023/03/05 06:57:49;;;;;;;74.37;34.00;;;2.30;99.90;;;;;;5067409;28;20204;-48
2023/03/05 07:00:17;;;;;;;75.43;34.37;;;2.40;99.90;;;;;;5067129;28;20207;-48
2023/03/05 07:02:47;;;;;;;67.37;32.87;;;2.40;99.90;;;;;;5065340;28;20199;-48
2023/03/05 07:05:14;;;;;;;73.90;35.43;;;2.60;99.90;;;;;;5074747;28;20222;-49
2023/03/05 07:07:41;;;;;;;63.57;31.80;;;2.60;99.90;;;;;;5069519;28;20741;-48
2023/03/05 07:10:09;;;;;;;66.60;32.30;;;2.60;99.90;;;;;;5073287;28;20545;-48
2023/03/05 07:12:38;;;;;;;75.63;35.40;;;2.60;99.90;;;;;;5068027;28;20649;-48
2023/03/05 07:15:07;;;;;;;78.97;35.53;;;2.70;99.90;;;;;;5064589;28;20213;-48
2023/03/05 07:17:34;;;;;;;71.20;33.63;;;2.70;99.90;;;;;;5058532;28;20200;-49
2023/03/05 07:20:01;;;;;;;69.30;34.60;;;2.80;99.90;;;;;;5071629;28;20210;-49
2023/03/05 07:22:28;;;;;;;67.20;32.67;;;2.90;99.90;;;;;;5064209;28;20210;-50
2023/03/05 07:24:55;;;;;;;81.40;35.60;;;2.90;99.90;;;;;;5057851;28;20249;-48
2023/03/05 07:27:24;;;;;;;74.27;35.37;;;3.00;99.90;;;;;;5057696;28;20207;-53
2023/03/05 07:29:52;;;;;;;78.07;36.50;;;3.10;99.90;;;;;;5068104;28;20234;-48
2023/03/05 07:32:19;;;;;;;74.00;34.70;;;3.10;99.90;;;;;;5072521;28;20203;-48
2023/03/05 07:34:46;;;;;;;66.40;33.50;;;3.20;99.90;;;;;;5072556;28;20194;-48
2023/03/05 07:37:14;;;;;;;71.47;33.17;;;3.20;99.90;;;;;;5069297;28;20203;-49
2023/03/05 07:39:40;;;;;;;72.07;34.27;;;3.10;99.90;;;;;;5065802;28;20236;-48
2023/03/05 07:42:08;;;;;;;78.20;35.57;;;3.10;99.90;;;;;;5066990;28;20196;-48
2023/03/05 07:44:35;;;;;;;67.63;34.07;;;3.20;99.90;;;;;;5055450;28;20204;-49
2023/03/05 07:47:03;;;;;;;69.10;35.03;;;3.30;99.90;;;;;;5064119;28;20230;-48
2023/03/05 07:49:30;;;;;;;66.37;32.60;;;3.40;99.90;;;;;;5073645;28;20300;-48
2023/03/05 07:51:57;;;;;;;70.47;33.77;;;3.40;99.90;;;;;;5073791;28;20269;-49
2023/03/05 07:54:24;;;;;;;67.17;35.13;;;3.40;99.90;;;;;;5070245;28;20203;-48
2023/03/05 07:56:54;;;;;;;66.53;33.17;;;3.40;99.90;;;;;;5072545;28;20667;-48
2023/03/05 07:59:21;;;;;;;69.80;36.17;;;3.50;99.90;;;;;;5073179;28;20226;-49
2023/03/05 08:01:48;;;;;;;73.60;34.57;;;3.50;99.90;;;;;;5054400;28;20207;-48
2023/03/05 08:04:16;;;;;;;71.60;34.40;;;3.60;99.90;;;;;;5053948;28;20204;-49
2023/03/05 08:06:45;;;;;;;72.57;34.20;;;3.70;99.90;;;;;;5053432;28;20254;-48
2023/03/05 08:09:13;;;;;;;76.70;34.67;;;3.70;99.90;;;;;;5053478;28;20223;-48
2023/03/05 08:11:40;;;;;;;71.10;35.57;;;3.70;99.90;;;;;;5053618;28;20197;-48
2023/03/05 08:14:07;;;;;;;72.20;35.13;;;3.80;99.90;;;;;;5059225;28;20210;-48
2023/03/05 08:16:36;;;;;;;70.33;36.33;;;3.80;99.90;;;;;;5072293;28;20199;-48
2023/03/05 08:19:03;;;;;;;73.23;35.37;;;3.80;99.90;;;;;;5066295;28;20261;-47
2023/03/05 08:21:34;;;;;;;69.47;33.43;;;3.90;99.90;;;;;;5073397;28;20235;-50
2023/03/05 08:24:03;;;;;;;79.07;35.73;;;3.90;99.90;;;;;;5073317;28;20678;-48
2023/03/05 08:26:32;;;;;;;71.67;33.23;;;3.90;99.90;;;;;;5073102;28;20298;-49
2023/03/05 08:29:00;;;;;;;69.13;32.97;;;4.00;99.90;;;;;;5072733;28;20276;-47
2023/03/05 08:31:28;;;;;;;69.80;33.10;;;4.20;99.90;;;;;;5070857;28;20218;-48
2023/03/05 08:33:58;;;;;;;66.37;31.63;;;4.20;99.90;;;;;;5070717;28;20206;-49
2023/03/05 08:36:26;;;;;;;59.63;31.93;;;4.40;99.90;;;;;;5062833;28;20356;-48
2023/03/05 08:38:55;;;;;;;61.93;33.07;;;4.50;99.90;;;;;;5059568;28;20226;-48
2023/03/05 08:41:23;;;;;;;70.93;35.47;;;4.40;99.90;;;;;;5059926;28;20230;-49
2023/03/05 08:43:50;;;;;;;68.43;35.47;;;4.30;99.90;;;;;;5063455;28;20655;-47
2023/03/05 08:46:17;;;;;;;65.00;36.20;;;4.50;99.90;;;;;;5064238;28;20646;-47
2023/03/05 08:48:44;;;;;;;77.20;34.90;;;4.50;99.90;;;;;;5060282;28;20645;-50
2023/03/05 08:51:14;;;;;;;69.43;33.67;;;4.50;99.90;;;;;;5067175;28;20204;-48
2023/03/05 08:53:43;;;;;;;71.07;34.37;;;4.60;99.90;;;;;;5072909;28;20205;-47
2023/03/05 08:56:12;;;;;;;66.40;31.93;;;4.80;99.90;;;;;;5066918;28;20199;-47
2023/03/05 08:58:39;;;;;;;68.83;32.13;;;4.90;99.90;;;;;;5067353;28;20223;-48
2023/03/05 09:01:06;;;;;;;62.30;31.47;;;4.90;99.90;;;;;;5071523;28;20202;-48
2023/03/05 09:03:33;;;;;;;63.77;34.47;;;5.00;99.90;;;;;;5072613;28;20201;-51
2023/03/05 09:06:01;;;;;;;58.33;28.50;;;5.10;99.90;;;;;;5064491;28;20223;-49
2023/03/05 09:08:29;;;;;;;57.50;30.93;;;5.20;99.90;;;;;;5062080;28;20705;-47
2023/03/05 09:10:57;;;;;;;59.17;30.63;;;5.10;99.90;;;;;;5070638;28;20256;-48
2023/03/05 09:13:25;;;;;;;59.40;29.67;;;5.20;99.90;;;;;;5061254;28;20201;-48
2023/03/05 09:15:56;;;;;;;62.65;33.85;;;5.00;99.90;;;;;;5056909;28;21012;-49
2023/03/05 09:18:23;;;;;;;59.50;30.93;;;5.20;99.90;;;;;;5063238;28;20630;-49
2023/03/05 09:20:50;;;;;;;60.83;30.23;;;5.10;99.90;;;;;;5069237;28;20206;-48
2023/03/05 09:23:17;;;;;;;57.37;29.43;;;5.10;99.90;;;;;;5066466;28;20198;-49
2023/03/05 09:25:44;;;;;;;59.50;29.37;;;5.30;99.90;;;;;;5071879;28;20199;-49
2023/03/05 09:28:11;;;;;;;58.60;31.63;;;5.40;99.90;;;;;;5061509;28;20223;-48
2023/03/05 09:30:40;;;;;;;56.33;27.90;;;5.30;99.90;;;;;;5071017;28;20198;-51
2023/03/05 09:33:07;;;;;;;57.17;26.53;;;5.10;99.90;;;;;;5075268;28;20203;-49
2023/03/05 09:35:36;;;;;;;60.33;27.93;;;5.10;99.90;;;;;;5065468;28;20207;-49
2023/03/05 09:38:04;;;;;;;52.13;26.37;;;5.10;99.90;;;;;;5071622;28;20231;-48
2023/03/05 09:40:36;;;;;;;54.53;28.53;;;5.20;99.90;;;;;;5063519;28;20257;-49
2023/03/05 09:43:10;;;;;;;56.20;28.13;;;5.30;99.90;;;;;;5071986;28;20258;-48
2023/03/05 09:45:44;;;;;;;53.63;28.03;;;5.10;99.90;;;;;;5063398;28;20209;-48
2023/03/05 09:48:19;;;;;;;53.07;28.03;;;5.30;99.90;;;;;;5084932;28;20218;-48
2023/03/05 09:50:50;;;;;;;53.93;26.63;;;5.50;99.90;;;;;;5091978;28;20625;-49
2023/03/05 09:53:27;;;;;;;57.20;28.33;;;5.60;99.90;;;;;;5077071;28;20198;-48
2023/03/05 09:55:57;;;;;;;58.50;27.73;;;5.90;99.90;;;;;;5067406;28;20258;-49
2023/03/05 09:58:35;;;;;;;52.17;27.70;;;6.10;99.90;;;;;;5052540;28;20223;-49
2023/03/05 10:01:06;;;;;;;54.53;27.53;;;6.40;99.90;;;;;;5060984;28;20203;-48
2023/03/05 10:03:44;;;;;;;54.20;27.27;;;6.40;99.90;;;;;;5077260;28;20280;-48
2023/03/05 10:06:16;;;;;;;49.13;25.13;;;6.60;99.90;;;;;;5075127;28;20579;-48
2023/03/05 10:08:53;;;;;;;53.27;28.00;;;6.80;99.90;;;;;;5071452;28;20287;-48
2023/03/05 10:11:39;;;;;;;49.10;26.07;;;6.70;99.90;;;;;;5071574;28;20669;-49
2023/03/05 10:14:12;;;;;;;56.30;27.67;;;7.00;99.90;;;;;;5059925;28;20248;-48
2023/03/05 10:17:16;;;;;;;47.03;26.23;;;7.20;99.90;;;;;;5068986;28;20228;-49
2023/03/05 10:20:07;;;;;;;48.73;25.37;;;7.20;99.90;;;;;;5071224;28;20635;-48
2023/03/05 10:22:42;;;;;;;48.97;23.90;;;7.10;99.90;;;;;;5049454;28;20674;-48
2023/03/05 10:25:20;;;;;;;50.90;25.40;;;7.30;99.90;;;;;;5068459;28;20195;-49
2023/03/05 10:27:50;;;;;;;44.90;24.23;;;7.40;99.90;;;;;;5071144;28;20637;-49
2023/03/05 10:30:31;;;;;;;44.90;23.93;;;7.10;99.90;;;;;;5070298;28;20203;-49
2023/03/05 10:33:10;;;;;;;46.43;23.03;;;6.90;99.90;;;;;;5066247;28;20289;-49
2023/03/05 10:36:09;;;;;;;51.10;24.00;;;7.10;99.90;;;;;;5071338;28;20200;-50
2023/03/05 10:39:06;;;;;;;42.33;23.60;;;7.30;99.90;;;;;;5070927;28;20715;-49
2023/03/05 10:41:40;;;;;;;46.10;24.13;;;7.30;99.90;;;;;;5038440;28;20257;-48
2023/03/05 10:44:16;;;;;;;49.60;26.10;;;7.30;99.90;;;;;;5070317;28;20266;-49
2023/03/05 10:46:45;;;;;;;51.77;25.83;;;7.20;99.90;;;;;;5068372;28;20263;-47
2023/03/05 10:49:18;;;;;;;54.03;25.13;;;7.40;99.90;;;;;;5051057;28;20298;-49
2023/03/05 10:51:52;;;;;;;49.37;25.10;;;7.20;99.90;;;;;;5068428;28;20204;-48
2023/03/05 10:54:25;;;;;;;49.13;24.97;;;7.20;99.90;;;;;;5071359;28;20292;-49
2023/03/05 10:57:03;;;;;;;51.63;25.63;;;7.10;99.90;;;;;;5070051;28;21052;-49
2023/03/05 10:59:31;;;;;;;49.03;26.30;;;7.40;99.90;;;;;;5064728;28;20637;-48
2023/03/05 11:02:04;;;;;;;48.43;24.00;;;7.30;99.90;;;;;;5062572;28;20610;-48
2023/03/05 11:04:36;;;;;;;44.00;24.27;;;6.90;99.90;;;;;;5065017;28;20201;-48
2023/03/05 11:07:28;;;;;;;49.03;25.00;;;7.10;99.90;;;;;;5065009;28;20216;-48
2023/03/05 11:10:05;;;;;;;42.67;22.13;;;6.90;99.90;;;;;;5072169;28;20226;-48
2023/03/05 11:12:33;;;;;;;46.60;24.83;;;6.70;99.90;;;;;;5070433;28;20203;-48
2023/03/05 11:15:18;;;;;;;45.17;24.60;;;6.80;99.90;;;;;;5059425;28;20278;-48
2023/03/05 11:18:03;;;;;;;48.20;24.73;;;7.30;99.90;;;;;;5066056;28;20250;-47
2023/03/05 11:20:34;;;;;;;46.67;23.77;;;7.80;99.90;;;;;;5063562;28;20689;-49
2023/03/05 11:23:11;;;;;;;50.13;25.07;;;8.20;99.90;;;;;;5058704;28;20195;-47
2023/03/05 11:26:00;;;;;;;47.77;23.30;;;8.60;99.90;;;;;;5061800;28;20273;-47
2023/03/05 11:28:31;;;;;;;42.60;22.83;;;8.70;99.90;;;;;;5063161;28;20789;-49
2023/03/05 11:31:06;;;;;;;38.23;22.93;;;8.30;99.90;;;;;;5057384;28;20199;-49
2023/03/05 11:33:34;;;;;;;45.40;23.27;;;8.40;99.90;;;;;;5065680;28;20243;-47
2023/03/05 11:36:23;;;;;;;44.07;23.23;;;8.10;99.90;;;;;;5071122;28;20206;-47
2023/03/05 11:38:57;;;;;;;45.67;22.10;;;8.10;99.90;;;;;;5076645;28;20252;-47
2023/03/05 11:41:29;;;;;;;46.70;24.50;;;7.90;99.90;;;;;;5070019;28;20208;-48
2023/03/05 11:43:58;;;;;;;42.13;22.03;;;7.80;99.90;;;;;;5065346;28;20197;-49
2023/03/05 11:46:27;;;;;;;44.83;21.37;;;7.80;99.90;;;;;;5063869;28;20255;-48
2023/03/05 11:48:55;;;;;;;42.17;22.10;;;7.80;99.90;;;;;;5073702;28;20238;-48
2023/03/05 11:51:26;;;;;;;41.23;21.97;;;7.90;99.90;;;;;;5069912;28;20285;-49
2023/03/05 11:53:59;;;;;;;37.17;21.20;;;7.60;99.90;;;;;;5072745;28;20194;-49
2023/03/05 11:56:31;;;;;;;39.50;21.30;;;7.80;99.90;;;;;;5065232;28;20203;-48
2023/03/05 11:59:02;;;;;;;37.73;19.90;;;7.70;99.90;;;;;;5065605;28;20702;-49
2023/03/05 12:01:32;;;;;;;37.07;21.30;;;7.70;99.90;;;;;;5074122;28;20216;-49
2023/03/05 12:04:00;;;;;;;37.20;21.37;;;7.80;99.90;;;;;;5073766;28;20201;-49
2023/03/05 12:06:33;;;;;;;40.73;21.10;;;7.80;99.90;;;;;;5073583;28;20207;-49
2023/03/05 12:09:09;;;;;;;42.40;21.97;;;7.90;99.90;;;;;;5073405;28;20237;-49
2023/03/05 12:11:37;;;;;;;36.97;21.57;;;7.60;99.90;;;;;;5072949;28;20202;-48
2023/03/05 12:14:10;;;;;;;42.40;22.97;;;7.50;99.90;;;;;;5066053;28;20256;-49
2023/03/05 12:16:42;;;;;;;39.77;21.57;;;7.70;99.90;;;;;;5067915;28;20687;-49
2023/03/05 12:19:34;;;;;;;37.83;19.53;;;7.90;99.90;;;;;;5073256;28;20632;-48
2023/03/05 12:22:02;;;;;;;39.47;20.67;;;7.90;99.90;;;;;;5073481;28;20217;-49
2023/03/05 12:24:38;;;;;;;35.87;19.23;;;7.90;99.90;;;;;;5069759;28;20202;-48
2023/03/05 12:27:09;;;;;;;40.93;21.83;;;8.10;99.90;;;;;;5066071;28;20223;-49
2023/03/05 12:29:44;;;;;;;41.40;20.67;;;8.10;99.90;;;;;;5066900;28;20253;-50
2023/03/05 12:32:57;;;;;;;38.53;20.67;;;8.00;99.90;;;;;;5073282;28;20272;-48
2023/03/05 12:35:35;;;;;;;40.47;22.37;;;8.10;99.90;;;;;;5070357;28;20291;-47
2023/03/05 12:38:31;;;;;;;40.93;20.93;;;8.00;99.90;;;;;;5065516;28;20779;-48
2023/03/05 12:41:42;;;;;;;38.33;22.30;;;8.00;99.90;;;;;;5073140;28;20199;-48
2023/03/05 12:44:18;;;;;;;41.47;21.30;;;7.90;99.90;;;;;;5041765;28;20202;-49
2023/03/05 12:46:47;;;;;;;36.90;19.80;;;7.90;99.90;;;;;;5059985;28;20245;-51
2023/03/05 12:49:35;;;;;;;34.37;19.90;;;8.00;99.90;;;;;;5072438;28;20280;-47
2023/03/05 12:52:04;;;;;;;39.27;20.30;;;8.20;99.90;;;;;;5073034;28;20205;-48